Nearby METAR Reports

 

KSLC - Salt Lake City, Utah, USA
Distance from station: W 19mi, 31km
Updated: Tue, 19-Sep-2017 10:54pm MDT
Few Clouds
Few Clouds
 Wind from NNW
Wind: NNW 5 mph , 7 km/h
Temperature: 55°F , 13°C
Dew Point: 36°F , 2°C
Humidity: 47%
Barometer: 29.93 inHg , 1013.5 hPa
Clouds: Few Clouds
Visibility: 10 miles , 16 km
Cloud details: Few Clouds 12000 ft
2017/09/20 04:54 KSLC 200454Z 33004KT 10SM FEW120 13/02 A2993 RMK AO2 SLP111 T01280017
K36U - Heber/Russ Mcdon, Utah, USA
Distance from station: SSE 21mi, 34km
Updated: Tue, 19-Sep-2017 11:15pm MDT
Clear
Clear
 Wind from calm
Wind: Calm
Temperature: 41°F , 5°C
Dew Point: 36°F , 2°C
Humidity: 81%
Barometer: 29.97 inHg , 1014.9 hPa
Clouds: Clear
Visibility: 10 miles , 16 km
2017/09/20 05:15 K36U 200515Z AUTO 00000KT 10SM CLR 05/02 A2997 RMK AO2
 
KHIF - Hill Afb/Ogden, Utah, USA
Distance from station: NW 31mi, 50km
Updated: Tue, 19-Sep-2017 10:58pm MDT
Clear
Clear
 Wind from E
Wind: E 5 mph , 7 km/h
Temperature: 48°F , 9°C
Wind Chill: 46°F , 8°C
Dew Point: 36°F , 2°C
Humidity: 62%
Barometer: 29.95 inHg , 1014.2 hPa
Clouds: Clear
Visibility: 10 miles , 16 km
2017/09/20 04:58 KHIF 200458Z AUTO 08004KT 10SM CLR 09/02 A2995 RMK AO2 SLP121 T00880015
KOGD - Ogden, Utah, USA
Distance from station: NW 37mi, 60km
Updated: Tue, 19-Sep-2017 10:53pm MDT
Clear
Clear
 Wind from calm
Wind: Calm
Temperature: 48°F , 9°C
Dew Point: 37°F , 3°C
Humidity: 66%
Barometer: 29.94 inHg , 1013.9 hPa
Clouds: Clear
Visibility: 10 miles , 16 km
2017/09/20 04:53 KOGD 200453Z AUTO 00000KT 10SM CLR 09/03 A2994 RMK AO2 SLP118 T00890028
 
KPVU - Provo Muni, Utah, USA
Distance from station: S 38mi, 61km
Updated: Tue, 19-Sep-2017 10:56pm MDT
Clear
Clear
 Wind from SE
Wind: SE 3 mph , 6 km/h
Temperature: 52°F , 11°C
Dew Point: 39°F , 4°C
Humidity: 62%
Barometer: 29.95 inHg , 1014.2 hPa
Clouds: Clear
Visibility: 10 miles , 16 km
2017/09/20 04:56 KPVU 200456Z AUTO 13003KT 10SM CLR 11/04 A2995 RMK AO2 SLP121 T01110044
KEVW - Evanston, Wyoming, USA
Distance from station: NE 46mi, 74km
Updated: Tue, 19-Sep-2017 10:53pm MDT
Clear
Clear
 Wind from N
Wind: N 7 mph , 11 km/h
Temperature: 37°F , 3°C
Wind Chill: 32°F , 0°C
Dew Point: 28°F , -2°C
Humidity: 70%
Barometer: 30.01 inHg , 1016.3 hPa
Clouds: Clear
Visibility: 10 miles , 16 km
2017/09/20 04:53 KEVW 200453Z AUTO 36006KT 10SM CLR 03/M02 A3001 RMK AO2 SLP144 T00331017